Himawari 2 — JG5636 — position and weather

sailwx.info

Track history (hours):
 
Tides and Currents Weather Stations Pressure Air Temp Water Temp Dewpoint Dewpoint Depression Visibility Wind Speed Wind Dir Waves Ship Positions

Himawari 2

Last reported at 2015-Jan-28 15:26 UTC. Time now 2015-Feb-01 21:19 UTC.
Position N 34°55' E 140°03'.

Length 161 m; draft 6.5 m.

Type: Cargo ship. MMSI: 431100957.

Date/timePositionNaut miles runAvg speedWind from/ knotsBaromVisibWave heightAir tempDewpointWater temp
2015-Jan-28 15:26N 34°55' E 140°03'1416.0
2015-Jan-28 14:33N 34°53' E 139°47'1818.0
2015-Jan-28 13:33N 35°11' E 139°46'1313.4
2015-Jan-28 12:34N 35°24' E 139°43'1414.2
2015-Jan-28 11:33N 35°38' E 139°49'0 0.0
2015-Jan-28 06:09N 35°38' E 139°50'0 0.0
2015-Jan-28 05:03N 35°38' E 139°50'0 0.0
2015-Jan-28 04:27N 35°38' E 139°50'1 0.2
2015-Jan-27 23:33N 35°37' E 139°49'1313.2
2015-Jan-27 22:33N 35°24' E 139°46'1211.8
2015-Jan-27 21:33N 35°12' E 139°47'1616.4
2015-Jan-27 20:33N 34°58' E 139°36'2319.1
2015-Jan-27 19:21N 34°44' E 139°14'21718.3
2015-Jan-27 07:30N 33°55' E 134°58'2223.0
2015-Jan-27 06:33N 34°17' E 134°58'2019.9
2015-Jan-27 05:33N 34°37' E 134°59'11 0.9
2015-Jan-26 17:32N 34°33' E 134°47'1615.8
2015-Jan-26 16:33N 34°36' E 135°05'1515.2
2015-Jan-26 15:33N 34°38' E 135°23'1 1.4
2015-Jan-26 14:32N 34°40' E 135°24'0 0.0
2015-Jan-26 13:32N 34°40' E 135°24'0 0.0
2015-Jan-26 12:32N 34°40' E 135°24'0 0.0
2015-Jan-26 11:26N 34°40' E 135°24'0 0.0
2015-Jan-26 10:32N 34°40' E 135°24'0 0.0
2015-Jan-26 09:26N 34°40' E 135°24'0 0.0
2015-Jan-26 08:32N 34°40' E 135°24'0 0.0
2015-Jan-26 07:20N 34°40' E 135°24'0 0.0
2015-Jan-26 06:32N 34°40' E 135°24'7 7.5
2015-Jan-26 05:33N 34°35' E 135°18'1919.0
2015-Jan-26 04:33N 34°21' E 135°02'1817.9
2015-Jan-26 03:33N 34°03' E 134°59'22515.9
2015-Jan-25 13:26N 34°52' E 139°25'1921.2
2015-Jan-25 12:33N 35°06' E 139°41'1413.8
2015-Jan-25 11:33N 35°19' E 139°43'1616.1
2015-Jan-25 10:34N 35°34' E 139°51'4 1.0
2015-Jan-25 06:28N 35°38' E 139°49'1112.1
2015-Jan-25 05:33N 35°27' E 139°50'1211.9
2015-Jan-25 04:33N 35°15' E 139°47'1615.5
2015-Jan-25 03:33N 34°60' E 139°44'1615.8
2015-Jan-25 02:32N 34°56' E 140°03'  
2015-Jan-21 22:28N 34°55' E 140°03'1718.2
2015-Jan-21 21:33N 34°58' E 139°43'1817.7
2015-Jan-21 20:34N 35°16' E 139°46'1110.6
2015-Jan-21 19:34N 35°26' E 139°46'1211.5
2015-Jan-21 18:32N 35°38' E 139°50'2 0.2
2015-Jan-21 11:31N 35°36' E 139°50'1313.9
2015-Jan-21 10:33N 35°23' E 139°46'1212.1
2015-Jan-21 09:33N 35°11' E 139°46'2221.8
2015-Jan-21 08:33N 34°54' E 139°29'23019.1
2015-Jan-20 20:33N 34°05' E 134°57'2322.7
2015-Jan-20 19:33N 34°27' E 135°02'1212.1
2015-Jan-20 18:32N 34°32' E 134°48'2 0.2
2015-Jan-20 07:18N 34°34' E 134°50'1520.3
2015-Jan-20 06:33N 34°36' E 135°08'1413.9
2015-Jan-20 05:33N 34°40' E 135°24'0 0.0
2015-Jan-20 04:06N 34°40' E 135°24'0 0.0
2015-Jan-20 03:18N 34°40' E 135°24'0 0.0
2015-Jan-20 02:12N 34°40' E 135°24'0 0.0
2015-Jan-20 01:12N 34°40' E 135°24'0 0.3
2015-Jan-20 00:33N 34°39' E 135°24'1817.7
2015-Jan-19 23:33N 34°27' E 135°09'2222.1
2015-Jan-19 22:33N 34°06' E 134°60'23318.7
2015-Jan-19 10:07N 34°43' E 139°38'1321.9
2015-Jan-19 09:30N 34°51' E 139°52'2722.5
2015-Jan-19 08:18N 35°04' E 140°20'  
Track history (hours):
 
Tides and Currents Weather Stations Pressure Air Temp Water Temp Dewpoint Dewpoint Depression Visibility Wind Speed Wind Dir Waves Ship Positions

Himawari 2

Last reported at 2015-Jan-28 15:26 UTC. Time now 2015-Feb-01 21:19 UTC.
Position N 34°55' E 140°03'.

Length 161 m; draft 6.5 m.

Type: Cargo ship. MMSI: 431100957.

Date/timePositionNaut miles runAvg speedWind from/ knotsBaromVisibWave heightAir tempDewpointWater temp
2015-Jan-28 15:26N 34°55' E 140°03'1416.0
2015-Jan-28 14:33N 34°53' E 139°47'1818.0
2015-Jan-28 13:33N 35°11' E 139°46'1313.4
2015-Jan-28 12:34N 35°24' E 139°43'1414.2
2015-Jan-28 11:33N 35°38' E 139°49'0 0.0
2015-Jan-28 06:09N 35°38' E 139°50'0 0.0
2015-Jan-28 05:03N 35°38' E 139°50'0 0.0
2015-Jan-28 04:27N 35°38' E 139°50'1 0.2
2015-Jan-27 23:33N 35°37' E 139°49'1313.2
2015-Jan-27 22:33N 35°24' E 139°46'1211.8
2015-Jan-27 21:33N 35°12' E 139°47'1616.4
2015-Jan-27 20:33N 34°58' E 139°36'2319.1
2015-Jan-27 19:21N 34°44' E 139°14'21718.3
2015-Jan-27 07:30N 33°55' E 134°58'2223.0
2015-Jan-27 06:33N 34°17' E 134°58'2019.9
2015-Jan-27 05:33N 34°37' E 134°59'11 0.9
2015-Jan-26 17:32N 34°33' E 134°47'1615.8
2015-Jan-26 16:33N 34°36' E 135°05'1515.2
2015-Jan-26 15:33N 34°38' E 135°23'1 1.4
2015-Jan-26 14:32N 34°40' E 135°24'0 0.0
2015-Jan-26 13:32N 34°40' E 135°24'0 0.0
2015-Jan-26 12:32N 34°40' E 135°24'0 0.0
2015-Jan-26 11:26N 34°40' E 135°24'0 0.0
2015-Jan-26 10:32N 34°40' E 135°24'0 0.0
2015-Jan-26 09:26N 34°40' E 135°24'0 0.0
2015-Jan-26 08:32N 34°40' E 135°24'0 0.0
2015-Jan-26 07:20N 34°40' E 135°24'0 0.0
2015-Jan-26 06:32N 34°40' E 135°24'7 7.5
2015-Jan-26 05:33N 34°35' E 135°18'1919.0
2015-Jan-26 04:33N 34°21' E 135°02'1817.9
2015-Jan-26 03:33N 34°03' E 134°59'22515.9
2015-Jan-25 13:26N 34°52' E 139°25'1921.2
2015-Jan-25 12:33N 35°06' E 139°41'1413.8
2015-Jan-25 11:33N 35°19' E 139°43'1616.1
2015-Jan-25 10:34N 35°34' E 139°51'4 1.0
2015-Jan-25 06:28N 35°38' E 139°49'1112.1
2015-Jan-25 05:33N 35°27' E 139°50'1211.9
2015-Jan-25 04:33N 35°15' E 139°47'1615.5
2015-Jan-25 03:33N 34°60' E 139°44'1615.8
2015-Jan-25 02:32N 34°56' E 140°03'  
2015-Jan-21 22:28N 34°55' E 140°03'1718.2
2015-Jan-21 21:33N 34°58' E 139°43'1817.7
2015-Jan-21 20:34N 35°16' E 139°46'1110.6
2015-Jan-21 19:34N 35°26' E 139°46'1211.5
2015-Jan-21 18:32N 35°38' E 139°50'2 0.2
2015-Jan-21 11:31N 35°36' E 139°50'1313.9
2015-Jan-21 10:33N 35°23' E 139°46'1212.1
2015-Jan-21 09:33N 35°11' E 139°46'2221.8
2015-Jan-21 08:33N 34°54' E 139°29'23019.1
2015-Jan-20 20:33N 34°05' E 134°57'2322.7
2015-Jan-20 19:33N 34°27' E 135°02'1212.1
2015-Jan-20 18:32N 34°32' E 134°48'2 0.2
2015-Jan-20 07:18N 34°34' E 134°50'1520.3
2015-Jan-20 06:33N 34°36' E 135°08'1413.9
2015-Jan-20 05:33N 34°40' E 135°24'0 0.0
2015-Jan-20 04:06N 34°40' E 135°24'0 0.0
2015-Jan-20 03:18N 34°40' E 135°24'0 0.0
2015-Jan-20 02:12N 34°40' E 135°24'0 0.0
2015-Jan-20 01:12N 34°40' E 135°24'0 0.3
2015-Jan-20 00:33N 34°39' E 135°24'1817.7
2015-Jan-19 23:33N 34°27' E 135°09'2222.1
2015-Jan-19 22:33N 34°06' E 134°60'23318.7
2015-Jan-19 10:07N 34°43' E 139°38'1321.9
2015-Jan-19 09:30N 34°51' E 139°52'2722.5
2015-Jan-19 08:18N 35°04' E 140°20'  

Dump ship's entire track history